Time;durP1;ratioP1;P1;durP2;ratioP2;P2;SDS_P1;SDS_P2;PMS_P1;PMS_P2;Temp;Humidity;BMP_temperature;BMP_pressure;BME280_temperature;BME280_humidity;BME280_pressure;Samples;Min_cycle;Max_cycle;Signal;HPM_P1;HPM_P2
2022/06/25 00:00:46;;;;;;;4.00;1.67;;;;;;;24.94;32.35;99249.97;7793482;32;40046;-72
2022/06/25 00:09:37;;;;;;;4.47;1.60;;;;;;;24.83;32.27;99246.25;7793414;32;37619;-73
2022/06/25 00:13:53;;;;;;;3.17;1.42;;;;;;;24.47;32.44;99240.22;7790968;32;36966;-73
2022/06/25 00:18:09;;;;;;;2.78;1.60;;;;;;;24.87;31.97;99250.69;7766221;32;39659;-73
2022/06/25 00:22:25;;;;;;;3.03;1.50;;;;;;;24.88;32.03;99257.84;7766865;32;40788;-73
2022/06/25 00:26:42;;;;;;;1.83;1.45;;;;;;;24.51;32.77;99261.37;7765900;32;38673;-73
2022/06/25 00:30:58;;;;;;;3.47;1.60;;;;;;;24.42;33.06;99273.97;7766020;32;37643;-72
2022/06/25 00:35:14;;;;;;;5.03;1.90;;;;;;;24.22;33.91;99285.25;7765953;32;39258;-72
2022/06/25 00:39:30;;;;;;;4.87;1.77;;;;;;;24.25;33.92;99287.31;7766051;32;39930;-73
2022/06/25 00:43:46;;;;;;;1.77;1.45;;;;;;;24.40;33.75;99290.28;7765803;32;38090;-73
2022/06/25 00:48:02;;;;;;;4.85;1.90;;;;;;;24.30;33.92;99292.53;7751792;32;38072;-73
2022/06/25 00:52:20;;;;;;;3.05;1.83;;;;;;;23.88;34.40;99282.38;7768562;32;38979;-73
2022/06/25 00:56:39;;;;;;;2.85;1.50;;;;;;;23.98;34.01;99287.31;7792587;32;39967;-72
2022/06/25 01:00:55;;;;;;;6.30;1.85;;;;;;;24.00;33.95;99289.72;7792224;32;37934;-73
2022/06/25 01:05:13;;;;;;;1.77;1.40;;;;;;;24.30;33.17;99286.16;7792711;32;37072;-72
2022/06/25 01:09:29;;;;;;;1.75;1.48;;;;;;;24.25;33.06;99283.69;7772182;32;39074;-73
2022/06/25 01:13:45;;;;;;;3.50;1.77;;;;;;;24.33;32.37;99286.19;7765453;32;39977;-73
2022/06/25 01:18:01;;;;;;;4.03;1.45;;;;;;;24.37;32.11;99270.34;7766006;32;38092;-73
2022/06/25 01:22:17;;;;;;;4.68;1.70;;;;;;;24.36;32.47;99277.09;7766069;32;37027;-73
2022/06/25 01:26:35;;;;;;;5.00;1.80;;;;;;;24.26;32.45;99280.53;7775749;32;39945;-73
2022/06/25 01:30:51;;;;;;;4.85;1.73;;;;;;;24.22;32.63;99295.62;7792523;32;40784;-73
2022/06/25 01:35:08;;;;;;;4.15;2.00;;;;;;;24.33;32.95;99291.78;7792509;32;38078;-74
2022/06/25 01:39:24;;;;;;;4.15;1.70;;;;;;;24.43;32.25;99306.25;7792386;32;37034;-73
2022/06/25 01:43:40;;;;;;;6.90;2.10;;;;;;;24.40;33.05;99313.34;7774818;32;39362;-72
2022/06/25 01:47:57;;;;;;;3.28;1.70;;;;;;;24.55;36.66;99306.03;7765228;32;39966;-74
2022/06/25 01:52:14;;;;;;;2.40;1.85;;;;;;;24.07;39.19;99287.03;7764998;32;38242;-73
2022/06/25 01:56:29;;;;;;;6.87;1.95;;;;;;;23.61;40.61;99293.47;7764983;32;37622;-72
2022/06/25 02:00:46;;;;;;;4.00;2.08;;;;;;;23.28;41.73;99304.38;7765056;32;39275;-71
2022/06/25 02:05:03;;;;;;;2.47;1.85;;;;;;;22.78;43.10;99304.97;7785698;32;39890;-72
2022/06/25 02:09:19;;;;;;;2.70;1.83;;;;;;;22.59;44.52;99303.00;7791141;32;38915;-72
2022/06/25 02:13:36;;;;;;;2.85;2.15;;;;;;;22.45;44.99;99303.50;7792224;32;37896;-71
2022/06/25 02:17:52;;;;;;;7.20;2.70;;;;;;;22.43;45.21;99300.28;7771763;32;39338;-71
2022/06/25 02:22:08;;;;;;;6.75;2.05;;;;;;;22.33;45.39;99289.75;7764925;32;40848;-72
2022/06/25 02:26:24;;;;;;;5.10;2.50;;;;;;;22.20;46.64;99296.59;7785559;32;38732;-72
2022/06/25 02:30:40;;;;;;;3.85;2.35;;;;;;;21.94;46.76;99311.84;7791857;32;37760;-72
2022/06/25 02:34:56;;;;;;;3.30;2.00;;;;;;;21.83;47.40;99316.31;7770769;32;39788;-72
2022/06/25 02:39:13;;;;;;;6.35;2.05;;;;;;;21.88;47.40;99307.72;7764494;32;40599;-71
2022/06/25 02:43:28;;;;;;;5.18;2.15;;;;;;;21.79;47.08;99305.13;7764356;32;38425;-72
2022/06/25 02:47:45;;;;;;;3.67;2.10;;;;;;;21.79;47.46;99293.25;7769650;32;37524;-73
2022/06/25 02:52:01;;;;;;;4.18;2.12;;;;;;;21.78;46.81;99303.50;7789154;32;39268;-72
2022/06/25 03:00:53;;;;;;;2.03;1.60;;;;;;;21.71;45.76;99318.03;7791237;32;37867;-72
2022/06/25 03:05:10;;;;;;;7.70;2.37;;;;;;;21.80;44.34;99306.75;7791031;32;36963;-71
2022/06/25 03:09:26;;;;;;;4.80;2.25;;;;;;;21.66;45.62;99317.47;7790928;32;40045;-73
2022/06/25 03:13:42;;;;;;;2.95;1.90;;;;;;;21.63;45.98;99324.56;7781827;32;41165;-72
2022/06/25 03:17:59;;;;;;;4.18;2.05;;;;;;;21.79;45.53;99326.53;7763664;32;38634;-72
2022/06/25 03:22:15;;;;;;;6.78;2.00;;;;;;;21.90;45.73;99316.50;7766904;32;36978;-72
2022/06/25 03:26:32;;;;;;;4.78;2.00;;;;;;;21.84;46.23;99323.50;7766856;32;39188;-72
2022/06/25 03:30:48;;;;;;;5.68;2.12;;;;;;;21.65;46.54;99316.69;7766761;32;40845;-72
2022/06/25 03:35:05;;;;;;;3.00;1.90;;;;;;;21.73;44.79;99307.37;7766375;32;37948;-76
2022/06/25 03:39:21;;;;;;;7.60;2.08;;;;;;;21.96;43.44;99317.03;7766767;32;36602;-75
2022/06/25 03:43:37;;;;;;;4.03;1.85;;;;;;;22.19;42.73;99312.41;7791367;32;39721;-73
2022/06/25 03:47:53;;;;;;;4.00;1.80;;;;;;;22.17;41.73;99313.97;7793441;32;39602;-73
2022/06/25 03:52:09;;;;;;;3.87;2.03;;;;;;;22.01;41.79;99323.13;7793384;32;38672;-78
2022/06/25 03:56:25;;;;;;;9.02;2.03;;;;;;;22.05;42.17;99320.41;7779615;32;36925;-70
2022/06/25 04:00:41;;;;;;;3.28;1.83;;;;;;;22.46;41.44;99319.00;7793257;32;39237;-70
2022/06/25 04:04:57;;;;;;;3.33;1.90;;;;;;;22.68;40.99;99311.94;7791944;32;39467;-70
2022/06/25 04:09:13;;;;;;;2.53;1.67;;;;;;;22.85;40.00;99319.03;7792572;32;38283;-70
2022/06/25 04:13:29;;;;;;;3.87;1.77;;;;;;;23.08;40.16;99323.88;7766157;32;37439;-70
2022/06/25 04:17:45;;;;;;;3.17;1.85;;;;;;;23.14;40.55;99316.84;7766229;32;38838;-71
2022/06/25 04:22:01;;;;;;;4.90;1.92;;;;;;;23.29;39.09;99311.56;7766317;32;39838;-70
2022/06/25 04:26:18;;;;;;;3.55;1.67;;;;;;;23.12;40.76;99313.63;7766077;32;37830;-71
2022/06/25 04:30:33;;;;;;;2.05;1.70;;;;;;;22.84;42.84;99311.88;7765509;32;36822;-70
2022/06/25 04:34:49;;;;;;;3.17;1.83;;;;;;;23.21;41.50;99303.06;7766059;32;39187;-73
2022/06/25 04:39:06;;;;;;;5.05;1.90;;;;;;;22.73;44.76;99318.38;7766019;32;40741;-73
2022/06/25 04:43:23;;;;;;;4.18;2.03;;;;;;;23.29;43.37;99322.69;7766549;32;37976;-73
2022/06/25 04:47:39;;;;;;;3.40;1.98;;;;;;;23.19;42.64;99330.44;7765794;32;37004;-74
2022/06/25 04:51:55;;;;;;;4.97;2.00;;;;;;;23.03;47.67;99338.03;7765918;32;40167;-74
2022/06/25 04:56:11;;;;;;;2.55;1.80;;;;;;;23.33;47.40;99341.03;7765809;32;39832;-72
2022/06/25 05:00:27;;;;;;;2.50;2.12;;;;;;;23.01;47.88;99343.16;7765306;32;38015;-74
2022/06/25 05:04:43;;;;;;;5.15;2.08;;;;;;;22.74;50.17;99359.69;7765645;32;37004;-74
2022/06/25 05:09:00;;;;;;;3.83;2.30;;;;;;;22.98;48.80;99355.81;7765519;32;39228;-73
2022/06/25 05:13:15;;;;;;;2.95;2.30;;;;;;;22.41;51.62;99371.25;7779495;32;40666;-74
2022/06/25 05:17:31;;;;;;;3.83;2.28;;;;;;;23.03;49.94;99366.63;7765426;32;37844;-74
2022/06/25 05:21:48;;;;;;;6.57;2.12;;;;;;;23.14;50.55;99369.66;7764473;32;37770;-72
2022/06/25 05:26:04;;;;;;;3.47;2.42;;;;;;;23.03;50.66;99376.97;7762456;32;40067;-73
2022/06/25 05:30:20;;;;;;;4.47;2.20;;;;;;;23.29;50.12;99373.53;7761929;32;39666;-73
2022/06/25 05:34:36;;;;;;;2.92;2.25;;;;;;;23.55;49.21;99383.94;7766694;32;38393;-73
2022/06/25 05:38:52;;;;;;;4.20;2.37;;;;;;;23.04;48.51;99384.13;7784278;32;36860;-73
2022/06/25 05:43:08;;;;;;;2.97;2.05;;;;;;;23.17;48.03;99380.06;7764102;32;39224;-73
2022/06/25 05:47:24;;;;;;;5.12;2.65;;;;;;;23.37;48.72;99380.84;7767870;32;41292;-73
2022/06/25 05:51:40;;;;;;;6.80;3.20;;;;;;;23.63;49.07;99382.91;7780938;32;38194;-71
2022/06/25 05:55:56;;;;;;;9.95;3.75;;;;;;;23.35;49.45;99380.41;7771436;32;36772;-72
2022/06/25 06:00:13;;;;;;;5.55;2.92;;;;;;;23.44;50.34;99386.53;7782054;32;39484;-73
2022/06/25 06:04:29;;;;;;;8.63;2.40;;;;;;;23.84;49.00;99394.84;7791894;32;39989;-72
2022/06/25 06:08:45;;;;;;;3.95;2.20;;;;;;;23.36;50.38;99395.12;7791809;32;37976;-72
2022/06/25 06:13:01;;;;;;;6.57;2.40;;;;;;;23.35;51.39;99387.94;7791938;32;37727;-73
2022/06/25 06:17:17;;;;;;;5.85;2.25;;;;;;;23.54;50.28;99407.41;7791921;32;39328;-73
2022/06/25 06:21:33;;;;;;;4.10;2.75;;;;;;;23.35;50.25;99405.44;7791924;32;39865;-73
2022/06/25 06:25:50;;;;;;;4.62;2.30;;;;;;;23.57;48.86;99411.41;7791822;32;38230;-71
2022/06/25 06:30:09;;;;;;;4.87;2.70;;;;;;;23.84;47.92;99411.53;7791686;32;36921;-72
2022/06/25 06:34:25;;;;;;;5.40;2.30;;;;;;;24.00;47.48;99415.78;7791873;32;39713;-73
2022/06/25 06:38:41;;;;;;;3.37;2.30;;;;;;;23.60;47.65;99405.91;7791525;32;40526;-75
2022/06/25 06:42:57;;;;;;;5.93;2.33;;;;;;;23.83;47.67;99413.50;7791558;32;37605;-75
2022/06/25 06:47:13;;;;;;;3.62;2.30;;;;;;;23.91;46.47;99422.78;7791292;32;37722;-75
2022/06/25 06:51:29;;;;;;;4.68;2.50;;;;;;;24.11;45.81;99421.56;7791877;32;37770;-77
2022/06/25 06:55:45;;;;;;;5.53;2.50;;;;;;;24.33;45.09;99424.69;7790849;32;40008;-75
2022/06/25 07:00:06;;;;;;;5.70;2.25;;;;;;;24.72;44.04;99416.16;7776793;32;38103;-75
2022/06/25 07:04:22;;;;;;;10.18;2.85;;;;;;;24.32;42.70;99421.09;7785944;32;151769;-74
2022/06/25 07:08:38;;;;;;;7.12;3.55;;;;;;;24.73;45.53;99434.47;7791004;32;38866;-76
2022/06/25 07:12:55;;;;;;;6.10;3.60;;;;;;;24.31;47.22;99435.38;7790859;32;39656;-72
2022/06/25 07:17:11;;;;;;;7.18;3.78;;;;;;;24.71;47.35;99429.25;7790782;32;37659;-74
2022/06/25 07:21:28;;;;;;;11.50;3.95;;;;;;;25.07;45.62;99432.53;7776764;32;37855;-71
2022/06/25 07:25:44;;;;;;;10.18;4.32;;;;;;;24.35;49.61;99444.59;7790608;32;39304;-70
2022/06/25 07:30:00;;;;;;;9.98;4.00;;;;;;;25.02;47.11;99443.22;7790300;32;39983;-71
2022/06/25 07:34:17;;;;;;;7.00;3.85;;;;;;;25.38;46.16;99443.72;7790240;32;37984;-70
2022/06/25 07:38:33;;;;;;;10.30;3.40;;;;;;;24.84;47.67;99443.00;7790111;32;37889;-69
2022/06/25 07:42:49;;;;;;;9.32;3.20;;;;;;;24.58;48.10;99446.56;7790001;32;39317;-69
2022/06/25 07:47:06;;;;;;;10.45;3.78;;;;;;;24.55;48.63;99459.28;7789946;32;40006;-70
2022/06/25 07:55:56;;;;;;;7.60;3.42;;;;;;;24.77;47.48;99466.00;7789903;32;38561;-70
2022/06/25 08:00:13;;;;;;;7.37;3.20;;;;;;;24.55;47.26;99470.44;7789753;32;40091;-70
2022/06/25 08:04:29;;;;;;;4.70;3.40;;;;;;;24.23;47.85;99476.22;7789354;32;39955;-71
2022/06/25 08:08:45;;;;;;;6.87;3.40;;;;;;;24.24;47.27;99486.22;7792860;32;38034;-70
2022/06/25 08:13:02;;;;;;;9.52;3.40;;;;;;;24.47;46.98;99490.97;7793112;32;37680;-71
2022/06/25 08:17:18;;;;;;;4.35;3.22;;;;;;;24.46;47.78;99494.94;7790826;32;39972;-71
2022/06/25 08:21:34;;;;;;;6.12;3.03;;;;;;;24.46;47.58;99500.50;7792715;32;40468;-73
2022/06/25 08:25:50;;;;;;;6.25;2.78;;;;;;;24.89;46.63;99493.66;7792941;32;37949;-71
2022/06/25 08:30:07;;;;;;;5.65;2.92;;;;;;;25.09;45.63;99499.91;7793205;32;37078;-72
2022/06/25 08:34:23;;;;;;;10.63;3.10;;;;;;;24.72;46.92;99502.53;7793214;32;39351;-71
2022/06/25 08:38:39;;;;;;;7.10;3.08;;;;;;;25.22;47.12;99492.09;7793081;32;40010;-71
2022/06/25 08:42:55;;;;;;;8.25;2.92;;;;;;;25.25;47.58;99502.53;7793150;32;37991;-71
2022/06/25 08:47:12;;;;;;;6.87;3.05;;;;;;;25.12;47.09;99499.13;7792970;32;37801;-72
2022/06/25 08:51:28;;;;;;;5.00;2.92;;;;;;;25.39;46.60;99501.94;7778990;32;39925;-72
2022/06/25 08:55:45;;;;;;;8.48;2.83;;;;;;;25.16;47.28;99495.59;7778982;32;40047;-72
2022/06/25 09:00:01;;;;;;;3.37;2.35;;;;;;;25.34;47.63;99505.03;7792812;32;38781;-72
2022/06/25 09:04:17;;;;;;;6.40;2.53;;;;;;;26.15;46.61;99492.41;7792760;32;37003;-73
2022/06/25 09:08:34;;;;;;;5.18;3.03;;;;;;;25.96;45.68;99506.59;7792706;32;39291;-71
2022/06/25 09:12:54;;;;;;;4.18;2.60;;;;;;;26.20;45.67;99500.44;7792637;32;39851;-72
2022/06/25 09:17:14;;;;;;;4.95;2.90;;;;;;;25.80;46.67;99507.59;7792482;32;38493;-73
2022/06/25 09:21:41;;;;;;;8.02;3.03;;;;;;;25.90;46.41;99502.50;7792773;32;37765;-73
2022/06/25 09:26:10;;;;;;;7.97;2.92;;;;;;;25.93;46.38;99504.53;7792746;32;40150;-71
2022/06/25 09:30:29;;;;;;;7.30;3.35;;;;;;;26.34;44.73;99502.56;7792476;32;40545;-71
2022/06/25 09:34:46;;;;;;;8.25;2.85;;;;;;;26.41;44.10;99504.63;7792657;32;39537;-75
2022/06/25 09:39:02;;;;;;;4.80;3.03;;;;;;;26.21;45.60;99506.84;7792372;32;37769;-73
2022/06/25 09:43:23;;;;;;;6.93;3.25;;;;;;;26.27;44.65;99516.47;7779328;32;39177;-73
2022/06/25 09:47:43;;;;;;;6.87;2.70;;;;;;;26.50;43.60;99498.72;7791876;32;40902;-72
2022/06/25 09:52:02;;;;;;;5.72;2.97;;;;;;;26.24;45.46;99504.06;7792164;32;38686;-73
2022/06/25 09:56:21;;;;;;;8.30;3.12;;;;;;;27.02;43.92;99504.31;7792263;32;36641;-74
2022/06/25 10:00:38;;;;;;;5.70;3.28;;;;;;;26.38;43.67;99516.56;7792249;32;38573;-74
2022/06/25 10:05:03;;;;;;;7.90;3.62;;;;;;;27.19;43.02;99509.19;7791890;32;40795;-75
2022/06/25 10:09:20;;;;;;;6.80;3.40;;;;;;;27.07;42.55;99506.72;7778864;32;38720;-76
2022/06/25 10:13:36;;;;;;;4.32;2.72;;;;;;;27.00;42.37;99503.88;7778191;32;36989;-76
2022/06/25 10:17:53;;;;;;;7.57;2.87;;;;;;;26.52;44.07;99499.13;7777866;32;39462;-76
2022/06/25 10:22:11;;;;;;;8.35;3.53;;;;;;;27.27;41.79;99505.25;7791673;32;40090;-76
2022/06/25 10:26:27;;;;;;;7.87;2.67;;;;;;;26.74;43.36;99502.91;7777849;32;38090;-75
2022/06/25 10:30:51;;;;;;;3.37;2.50;;;;;;;26.53;43.36;99500.75;7776959;32;36935;-75
2022/06/25 10:35:08;;;;;;;7.03;2.70;;;;;;;26.88;43.78;99496.63;7791651;32;41417;-75
2022/06/25 10:39:28;;;;;;;5.40;2.72;;;;;;;27.67;41.86;99492.22;7791224;32;40506;-76
2022/06/25 10:43:46;;;;;;;4.65;2.50;;;;;;;27.54;41.76;99496.56;7791381;32;38776;-75
2022/06/25 10:48:03;;;;;;;4.30;2.80;;;;;;;27.38;41.66;99490.53;7791636;32;36855;-77
2022/06/25 10:52:19;;;;;;;4.25;2.45;;;;;;;27.61;41.91;99493.00;7777384;32;39925;-75
2022/06/25 10:56:44;;;;;;;4.07;2.40;;;;;;;27.69;41.23;99487.03;7790818;32;40889;-74
2022/06/25 11:01:01;;;;;;;5.97;3.40;;;;;;;27.68;40.26;99491.03;7788198;32;38746;-77
2022/06/25 11:05:18;;;;;;;10.55;2.92;;;;;;;27.66;40.11;99476.63;7790954;32;37841;-77
2022/06/25 11:09:34;;;;;;;6.43;2.62;;;;;;;27.51;40.76;99463.78;7777012;32;39278;-75
2022/06/25 11:13:57;;;;;;;3.42;2.50;;;;;;;27.85;40.65;99463.47;7791095;32;39998;-76
2022/06/25 11:18:14;;;;;;;7.10;2.40;;;;;;;27.75;39.28;99461.44;7790519;32;37940;-76
2022/06/25 11:22:30;;;;;;;4.87;2.25;;;;;;;28.27;39.64;99453.56;7768742;32;37356;-76
2022/06/25 11:31:24;;;;;;;5.40;2.45;;;;;;;28.24;39.35;99457.16;7779288;32;40824;-75
2022/06/25 11:35:44;;;;;;;4.10;2.10;;;;;;;28.58;37.58;99448.34;7790340;32;38715;-76
2022/06/25 11:40:00;;;;;;;3.42;1.98;;;;;;;28.56;37.80;99445.97;7783843;32;36801;-73
2022/06/25 11:44:16;;;;;;;2.80;2.08;;;;;;;28.29;38.42;99446.34;7766738;32;39986;-76
2022/06/25 11:48:32;;;;;;;5.03;1.65;;;;;;;29.04;37.76;99439.00;7793747;32;39997;-73
2022/06/25 11:52:48;;;;;;;2.80;1.80;;;;;;;29.08;36.91;99437.03;7768800;32;38770;-74
2022/06/25 11:57:06;;;;;;;3.03;2.03;;;;;;;28.35;38.47;99440.31;7752485;32;37057;-71
2022/06/25 12:01:28;;;;;;;5.28;1.80;;;;;;;28.15;38.44;99434.31;7778919;32;39287;-75
2022/06/25 12:05:44;;;;;;;;;;;;;;;28.72;37.13;99433.50;7783028;32;39833;-75
2022/06/25 12:10:07;;;;;;;2.33;1.55;;;;;;;28.53;38.11;99431.88;7770032;32;37906;-77
2022/06/25 12:14:28;;;;;;;5.00;1.40;;;;;;;28.12;38.63;99435.13;7774931;32;36574;-76
2022/06/25 12:18:44;;;;;;;3.80;1.25;;;;;;;28.30;37.96;99424.69;7779778;32;39971;-78
2022/06/25 12:23:02;;;;;;;4.22;1.23;;;;;;;29.04;36.25;99419.38;7793295;32;40794;-76
2022/06/25 12:27:18;;;;;;;4.28;1.90;;;;;;;28.98;37.02;99407.00;7793195;32;39112;-78
2022/06/25 12:31:34;;;;;;;3.55;1.33;;;;;;;29.18;36.72;99408.16;7765112;32;36957;-76
2022/06/25 12:35:50;;;;;;;4.78;1.40;;;;;;;29.10;35.92;99398.13;7789828;32;39369;-76
2022/06/25 12:40:07;;;;;;;3.50;1.55;;;;;;;29.39;35.78;99390.38;7780306;32;40018;-78
2022/06/25 12:44:29;;;;;;;4.60;1.20;;;;;;;29.43;36.60;99392.38;7791132;32;38994;-76
2022/06/25 12:48:45;;;;;;;2.73;1.53;;;;;;;29.10;37.65;99386.91;7767686;32;36718;-74
2022/06/25 12:53:13;;;;;;;3.17;1.50;;;;;;;29.11;37.50;99387.69;7792506;32;40039;-76
2022/06/25 12:57:31;;;;;;;3.28;1.35;;;;;;;30.13;35.89;99383.84;7792942;32;39992;-76
2022/06/25 13:01:47;;;;;;;1.27;1.05;;;;;;;31.11;33.69;99373.22;7770511;32;39444;-77
2022/06/25 13:06:03;;;;;;;4.07;1.35;;;;;;;31.31;32.57;99370.53;7765638;32;36835;-74
2022/06/25 13:10:19;;;;;;;3.62;1.30;;;;;;;31.66;31.79;99368.44;7765784;32;39501;-74
2022/06/25 13:14:36;;;;;;;2.47;1.48;;;;;;;32.18;30.26;99365.22;7765390;32;40156;-74
2022/06/25 13:18:52;;;;;;;4.70;1.40;;;;;;;31.85;31.48;99364.12;7767563;32;37917;-75
2022/06/25 13:23:09;;;;;;;2.28;1.25;;;;;;;32.60;30.16;99356.44;7792522;32;36871;-77
2022/06/25 13:27:25;;;;;;;4.10;1.02;;;;;;;33.02;28.45;99359.59;7792188;32;39295;-72
2022/06/25 13:31:41;;;;;;;2.33;1.10;;;;;;;32.30;30.01;99357.34;7771795;32;39978;-77
2022/06/25 13:36:00;;;;;;;1.02;0.93;;;;;;;31.83;30.29;99377.84;7765456;32;38844;-76
2022/06/25 13:40:16;;;;;;;1.20;1.10;;;;;;;31.74;32.26;99371.97;7775820;32;37766;-72
2022/06/25 13:44:34;;;;;;;4.97;1.23;;;;;;;32.40;28.77;99362.00;7792105;32;39489;-76
2022/06/25 13:48:51;;;;;;;2.37;0.85;;;;;;;32.96;28.70;99349.25;7790465;32;39692;-75
2022/06/25 13:53:07;;;;;;;1.42;0.88;;;;;;;32.38;30.60;99353.19;7762510;32;37935;-74
2022/06/25 13:57:23;;;;;;;1.62;0.90;;;;;;;32.39;29.66;99354.75;7762048;32;36633;-75
2022/06/25 14:01:39;;;;;;;1.77;1.02;;;;;;;31.72;31.84;99366.75;7779628;32;39351;-74
2022/06/25 14:05:56;;;;;;;0.90;0.90;;;;;;;32.32;29.69;99357.72;7789994;32;39858;-74
2022/06/25 14:10:12;;;;;;;6.03;1.15;;;;;;;31.68;30.54;99368.81;7788126;32;38623;-75
2022/06/25 14:14:33;;;;;;;6.03;1.10;;;;;;;32.97;29.36;99345.19;7791940;32;37477;-74
2022/06/25 14:18:51;;;;;;;2.92;1.20;;;;;;;31.97;30.37;99357.09;7790578;32;39263;-74
2022/06/25 14:23:07;;;;;;;1.15;1.10;;;;;;;31.01;32.97;99374.97;7773190;32;39626;-77
2022/06/25 14:27:23;;;;;;;1.73;1.25;;;;;;;30.77;33.79;99364.75;7788699;32;38410;-75
2022/06/25 14:31:46;;;;;;;1.15;1.00;;;;;;;31.43;32.21;99378.41;7784031;32;37595;-75
2022/06/25 14:45:16;;;;;;;1.08;0.95;;;;;;;30.66;32.51;99399.44;7748712;32;38712;-74
2022/06/25 14:49:35;;;;;;;2.17;1.15;;;;;;;30.50;33.27;99414.06;7763740;32;38503;-75
2022/06/25 14:53:51;;;;;;;1.20;0.82;;;;;;;30.39;34.17;99412.56;7763735;32;40209;-75
2022/06/25 14:58:08;;;;;;;1.23;0.77;;;;;;;30.62;33.20;99415.56;7764227;32;39919;-74
2022/06/25 15:02:24;;;;;;;4.68;1.00;;;;;;;31.18;33.01;99411.75;7763739;32;37909;-74
2022/06/25 15:06:40;;;;;;;6.60;1.00;;;;;;;31.20;32.66;99415.75;7763714;32;37914;-75
2022/06/25 15:10:57;;;;;;;12.23;1.42;;;;;;;30.73;32.69;99420.28;7763380;32;39354;-76
2022/06/25 15:15:14;;;;;;;1.55;0.77;;;;;;;29.89;35.41;99425.81;7762842;32;39753;-75
2022/06/25 15:19:30;;;;;;;1.60;0.80;;;;;;;30.66;32.84;99421.94;7779423;32;37859;-75
2022/06/25 15:23:46;;;;;;;1.98;0.70;;;;;;;30.67;32.75;99423.56;7790598;32;37629;-75
2022/06/25 15:28:03;;;;;;;2.83;1.10;;;;;;;31.07;31.45;99423.94;7767252;32;39497;-73
2022/06/25 15:32:20;;;;;;;0.70;0.62;;;;;;;30.61;32.72;99435.66;7775680;32;39935;-74
2022/06/25 15:36:36;;;;;;;2.17;0.90;;;;;;;31.11;32.37;99456.88;7788819;32;38078;-74
2022/06/25 15:40:52;;;;;;;1.77;1.00;;;;;;;30.69;31.92;99471.75;7789909;32;36873;-74
2022/06/25 15:45:08;;;;;;;4.05;1.33;;;;;;;30.44;30.15;99493.69;7789322;32;39880;-75
2022/06/25 15:49:24;;;;;;;2.78;1.40;;;;;;;30.50;26.91;99481.56;7789894;32;40824;-73
2022/06/25 15:53:40;;;;;;;2.60;1.08;;;;;;;30.29;24.93;99501.41;7789864;32;38782;-73
2022/06/25 15:57:56;;;;;;;5.55;1.20;;;;;;;29.83;23.70;99494.88;7789785;32;37033;-74
2022/06/25 16:02:12;;;;;;;4.00;1.27;;;;;;;28.80;25.23;99499.59;7787893;32;39329;-73
2022/06/25 16:06:28;;;;;;;4.87;1.10;;;;;;;28.87;24.96;99493.16;7769776;32;40794;-73
2022/06/25 16:10:45;;;;;;;2.42;1.20;;;;;;;28.20;26.59;99504.78;7774042;32;39448;-72
2022/06/25 16:15:03;;;;;;;2.33;1.42;;;;;;;28.41;27.49;99509.59;7786324;32;37246;-73
2022/06/25 16:19:20;;;;;;;4.75;1.65;;;;;;;28.29;27.73;99510.78;7760930;32;40912;-73
2022/06/25 16:23:36;;;;;;;4.95;1.73;;;;;;;28.41;28.20;99518.00;7768713;32;40150;-73
2022/06/25 16:27:52;;;;;;;6.93;1.30;;;;;;;27.91;29.71;99523.50;7762683;32;39221;-73
2022/06/25 16:32:11;;;;;;;2.55;1.08;;;;;;;27.53;33.41;99514.59;7765811;32;36826;-74
2022/06/25 16:36:27;;;;;;;4.28;1.35;;;;;;;27.37;33.47;99516.91;7764723;32;39765;-75
2022/06/25 16:40:43;;;;;;;3.12;1.23;;;;;;;27.05;33.36;99523.91;7765552;32;40005;-73
2022/06/25 16:44:59;;;;;;;2.53;1.33;;;;;;;26.68;35.34;99526.81;7770596;32;38045;-75
2022/06/25 16:49:22;;;;;;;2.65;1.10;;;;;;;26.67;35.29;99523.22;7791545;32;37493;-73
2022/06/25 16:53:38;;;;;;;1.50;1.20;;;;;;;26.42;35.38;99523.81;7792861;32;39173;-73
2022/06/25 16:57:55;;;;;;;3.12;1.10;;;;;;;26.53;35.52;99543.47;7791669;32;39991;-74
2022/06/25 17:02:11;;;;;;;3.10;1.40;;;;;;;26.44;38.21;99537.41;7790650;32;38206;-74
2022/06/25 17:06:28;;;;;;;1.65;1.40;;;;;;;26.59;37.86;99527.13;7791705;32;37153;-74
2022/06/25 17:10:45;;;;;;;1.27;1.10;;;;;;;26.40;37.25;99517.78;7792867;32;39332;-74
2022/06/25 17:15:02;;;;;;;1.48;1.23;;;;;;;26.33;37.32;99525.31;7792767;32;40773;-74
2022/06/25 17:19:18;;;;;;;2.20;1.25;;;;;;;26.22;37.68;99525.22;7792700;32;38150;-74
2022/06/25 17:23:35;;;;;;;2.17;1.30;;;;;;;26.36;37.49;99521.75;7792644;32;36869;-73
2022/06/25 17:27:51;;;;;;;3.00;1.23;;;;;;;26.01;37.63;99509.84;7792644;32;38907;-74
2022/06/25 17:32:07;;;;;;;1.70;1.30;;;;;;;26.19;37.35;99500.84;7776114;32;40490;-75
2022/06/25 17:36:23;;;;;;;5.12;1.58;;;;;;;26.23;36.23;99496.06;7765066;32;38573;-75
2022/06/25 17:40:40;;;;;;;9.85;2.00;;;;;;;25.85;37.94;99501.69;7765237;32;36987;-76
2022/06/25 17:44:56;;;;;;;7.28;2.22;;;;;;;25.54;39.29;99502.88;7765300;32;40859;-74
2022/06/25 17:49:12;;;;;;;4.78;2.05;;;;;;;25.69;40.31;99506.66;7765179;32;41112;-74
2022/06/25 17:53:29;;;;;;;5.50;2.25;;;;;;;25.30;41.46;99509.75;7768557;32;37791;-75
2022/06/25 17:57:46;;;;;;;1.87;1.42;;;;;;;25.24;42.49;99491.72;7792012;32;36968;-72
2022/06/25 18:02:03;;;;;;;6.80;1.73;;;;;;;25.27;43.85;99477.06;7787069;32;39481;-74
2022/06/25 18:06:19;;;;;;;6.32;1.85;;;;;;;24.71;46.21;99461.91;7751392;32;40083;-76
2022/06/25 18:10:35;;;;;;;3.90;1.77;;;;;;;24.41;46.96;99447.91;7764833;32;37843;-75
2022/06/25 18:14:52;;;;;;;4.40;1.75;;;;;;;24.24;49.71;99438.88;7764840;32;36882;-73
2022/06/25 18:19:08;;;;;;;2.70;1.90;;;;;;;23.29;53.32;99443.06;7764938;32;39233;-74
2022/06/25 18:23:24;;;;;;;3.80;2.03;;;;;;;23.69;51.58;99443.81;7764811;32;40842;-74
2022/06/25 18:27:40;;;;;;;4.87;2.20;;;;;;;24.05;50.81;99439.75;7765217;32;38738;-76
2022/06/25 18:31:56;;;;;;;2.75;1.60;;;;;;;24.03;49.79;99446.88;7764408;32;38627;-76
2022/06/25 18:36:12;;;;;;;15.25;4.80;;;;;;;24.20;48.27;99449.16;7765299;32;39350;-74
2022/06/25 18:40:29;;;;;;;5.40;2.60;;;;;;;24.21;47.85;99473.03;7779942;32;40809;-76
2022/06/25 18:44:46;;;;;;;4.87;2.60;;;;;;;24.24;45.78;99477.84;7780209;32;38451;-77
2022/06/25 18:49:02;;;;;;;4.22;2.03;;;;;;;24.19;46.35;99480.94;7763691;32;37052;-75
2022/06/25 18:53:19;;;;;;;7.47;3.05;;;;;;;23.98;46.79;99475.81;7764264;32;38185;-75
2022/06/25 18:57:42;;;;;;;6.50;2.85;;;;;;;23.94;46.38;99475.75;7780247;32;39910;-73
2022/06/25 19:02:00;;;;;;;9.10;3.95;;;;;;;24.01;45.55;99489.00;7791335;32;36208;-75
2022/06/25 19:06:17;;;;;;;10.07;4.28;;;;;;;23.92;45.23;99488.41;7763427;32;37047;-75
2022/06/25 19:10:35;;;;;;;5.50;2.37;;;;;;;23.34;46.11;99494.81;7770180;32;38432;-74
2022/06/25 19:14:51;;;;;;;9.13;4.07;;;;;;;23.74;44.97;99493.62;7772475;32;40706;-75
2022/06/25 19:19:07;;;;;;;9.75;3.78;;;;;;;23.79;44.55;99502.47;7781046;32;38723;-75
2022/06/25 19:23:23;;;;;;;8.27;3.00;;;;;;;23.61;45.00;99496.56;7790961;32;37089;-75
2022/06/25 19:27:40;;;;;;;12.05;4.22;;;;;;;23.65;46.18;99502.19;7790861;32;39290;-75
2022/06/25 19:31:57;;;;;;;10.25;3.22;;;;;;;23.56;46.54;99496.84;7785994;32;40730;-73
2022/06/25 19:36:13;;;;;;;8.20;3.60;;;;;;;23.53;46.73;99505.13;7772557;32;37602;-73
2022/06/25 19:40:30;;;;;;;8.30;4.68;;;;;;;23.62;46.88;99514.06;7763222;32;37453;-74
2022/06/25 19:44:46;;;;;;;8.27;4.68;;;;;;;23.46;47.59;99516.91;7768762;32;39978;-74
2022/06/25 19:49:03;;;;;;;5.68;2.80;;;;;;;23.40;48.15;99526.72;7772957;32;39940;-74
2022/06/25 19:53:19;;;;;;;6.22;2.50;;;;;;;23.39;48.75;99533.47;7762814;32;37998;-72
2022/06/25 19:57:36;;;;;;;4.97;2.25;;;;;;;23.33;48.99;99540.47;7764360;32;37006;-74
2022/06/25 20:01:52;;;;;;;5.50;1.90;;;;;;;23.41;49.05;99537.47;7772781;32;39220;-75
2022/06/25 20:06:09;;;;;;;2.67;2.15;;;;;;;23.46;48.09;99543.91;7776353;32;39756;-76
2022/06/25 20:10:25;;;;;;;2.33;1.80;;;;;;;23.35;47.85;99546.47;7782264;32;39114;-75
2022/06/25 20:14:44;;;;;;;2.78;1.70;;;;;;;23.19;47.67;99547.31;7766390;32;36573;-76
2022/06/25 20:19:00;;;;;;;5.22;2.22;;;;;;;23.18;47.01;99544.91;7766489;32;39375;-75
2022/06/25 20:23:16;;;;;;;3.22;1.80;;;;;;;22.80;48.30;99544.41;7775953;32;40880;-77
2022/06/25 20:27:32;;;;;;;3.70;1.98;;;;;;;22.76;48.20;99543.50;7764221;32;38025;-76
2022/06/25 20:31:49;;;;;;;3.45;1.85;;;;;;;22.53;47.95;99550.87;7793105;32;36953;-77
2022/06/25 20:36:05;;;;;;;2.33;1.40;;;;;;;22.77;45.87;99559.03;7793393;32;39283;-75